KCWA/CWA METAR and TAF weather

Enter ICAO airport designator
Station Type Date Time Source
KCWA METAR 2020/07/06 18:50 UTC NOAA

KCWA 061850Z 25007KT 10SM SCT047 SCT090 29/19 A3000


Station Type Date Time Source
KCWA Decoded METAR 2020/07/06 18:50 UTC NOAA

Mosinee / Central Wisconsin, WI, United States (KCWA) 44-47N 089-40W
Jul 06, 2020 - 02:50 PM EDT / 2020.07.06 1850 UTC
Wind: from the WSW (250 degrees) at 8 MPH (7 KT):0
Visibility: 10 mile(s):0
Sky conditions: partly cloudy
Temperature: 84 F (29 C)
Dew Point: 66 F (19 C)
Relative Humidity: 54%
Pressure (altimeter): 30 in. Hg (1015 hPa)
ob: KCWA 061850Z 25007KT 10SM SCT047 SCT090 29/19 A3000
cycle: 19

Station Type Date Time Source
KCWA TAF 2020/07/06 17:30 UTC NOAA

TAF
AMD KCWA 061729Z 0617/0718 25011KT P6SM VCTS SCT040CB BKN120
FM070000 23006KT P6SM VCTS SCT045CB BKN120
TEMPO 0700/0704 2SM TSRA SCT015 BKN045CB
FM070400 VRB03KT P6SM VCSH SCT030 BKN060 PROB30 0704/0707 5SM -SHRA BR BKN030
FM070700 VRB03KT 6SM BR SCT025 BKN050
FM071400 28004KT P6SM SCT035 BKN080

Example: see airport list